createdAt,value
2018-11-14T00:01:00.849Z,6.80
2018-11-14T00:03:30.241Z,6.80
2018-11-14T00:06:01.053Z,6.90
2018-11-14T00:08:31.575Z,6.70
2018-11-14T00:11:00.381Z,6.40
2018-11-14T00:13:29.208Z,6.20
2018-11-14T00:15:57.198Z,6.30
2018-11-14T00:18:25.572Z,6.30
2018-11-14T00:20:53.830Z,6.40
2018-11-14T00:23:22.570Z,6.40
2018-11-14T00:25:51.165Z,6.40
2018-11-14T00:28:19.543Z,6.20
2018-11-14T00:30:48.125Z,6.10
2018-11-14T00:33:17.090Z,6.10
2018-11-14T00:35:45.154Z,6.10
2018-11-14T00:38:19.796Z,6.00
2018-11-14T00:40:48.270Z,5.90
2018-11-14T00:43:16.676Z,6.10
2018-11-14T00:45:45.292Z,6.10
2018-11-14T00:48:13.183Z,5.90
2018-11-14T00:50:41.636Z,5.80
2018-11-14T00:53:09.925Z,5.70
2018-11-14T00:55:37.958Z,5.60
2018-11-14T00:58:06.429Z,5.50
2018-11-14T01:00:34.622Z,5.50
2018-11-14T01:03:02.886Z,5.50
2018-11-14T01:05:30.758Z,5.50
2018-11-14T01:07:59.093Z,5.60
2018-11-14T01:10:27.356Z,5.70
2018-11-14T01:12:55.721Z,5.80
2018-11-14T01:15:24.362Z,5.80
2018-11-14T01:17:53.803Z,5.70
2018-11-14T01:20:22.685Z,5.80
2018-11-14T01:22:51.156Z,6.00
2018-11-14T01:25:20.123Z,6.00
2018-11-14T01:27:48.631Z,5.90
2018-11-14T01:30:18.480Z,5.70
2018-11-14T01:32:47.325Z,5.70
2018-11-14T01:35:20.022Z,5.60
2018-11-14T01:37:48.218Z,5.60
2018-11-14T01:40:23.238Z,5.70
2018-11-14T01:42:56.125Z,5.50
2018-11-14T01:45:25.084Z,5.60
2018-11-14T01:47:53.149Z,5.70
2018-11-14T01:50:23.281Z,5.80
2018-11-14T01:52:51.849Z,5.90
2018-11-14T01:55:20.882Z,6.00
2018-11-14T01:57:49.324Z,6.00
2018-11-14T02:00:20.518Z,5.90
2018-11-14T02:02:48.388Z,5.80
2018-11-14T02:05:16.371Z,5.50
2018-11-14T02:07:44.251Z,5.50
2018-11-14T02:10:13.638Z,5.40
2018-11-14T02:12:42.997Z,5.50
2018-11-14T02:15:14.887Z,5.40
2018-11-14T02:17:43.342Z,5.40
2018-11-14T02:20:12.715Z,5.40
2018-11-14T02:22:42.387Z,5.40
2018-11-14T02:25:11.890Z,5.50
2018-11-14T02:27:40.896Z,5.40
2018-11-14T02:30:12.353Z,5.40
2018-11-14T02:32:40.377Z,5.30
2018-11-14T02:35:09.230Z,5.30
2018-11-14T02:37:37.597Z,5.10
2018-11-14T02:40:09.197Z,5.00
2018-11-14T02:42:38.230Z,5.00
2018-11-14T02:45:06.878Z,5.00
2018-11-14T02:47:35.237Z,5.00
2018-11-14T02:50:03.766Z,4.70
2018-11-14T02:52:32.438Z,4.70
2018-11-14T02:55:00.662Z,4.80
2018-11-14T02:57:29.093Z,4.70
2018-11-14T02:59:57.717Z,4.50
2018-11-14T03:02:25.644Z,4.40
2018-11-14T03:04:54.090Z,4.30
2018-11-14T03:07:23.265Z,4.20
2018-11-14T03:10:08.556Z,4.20
2018-11-14T03:12:37.626Z,4.30
2018-11-14T03:15:08.731Z,4.30
2018-11-14T03:17:37.234Z,4.30
2018-11-14T03:20:11.588Z,4.30
2018-11-14T03:22:40.330Z,4.30
2018-11-14T03:25:10.466Z,4.20
2018-11-14T03:27:39.224Z,4.20
2018-11-14T03:30:11.119Z,4.30
2018-11-14T03:32:40.493Z,4.30
2018-11-14T03:35:09.633Z,4.30
2018-11-14T03:37:38.226Z,4.40
2018-11-14T03:40:08.239Z,4.40
2018-11-14T03:42:36.894Z,4.50
2018-11-14T03:45:06.532Z,4.50
2018-11-14T03:47:34.865Z,4.60
2018-11-14T03:50:03.398Z,4.50
2018-11-14T03:52:31.962Z,4.40
2018-11-14T03:55:00.842Z,4.30
2018-11-14T03:57:29.755Z,4.30
2018-11-14T03:59:57.789Z,4.40
2018-11-14T04:02:26.180Z,4.40
2018-11-14T04:04:54.766Z,4.50
2018-11-14T04:07:23.118Z,4.40
2018-11-14T04:09:51.969Z,4.50
2018-11-14T04:12:20.004Z,4.50
2018-11-14T04:14:48.196Z,4.40
2018-11-14T04:17:16.619Z,4.40
2018-11-14T04:19:45.490Z,4.40
2018-11-14T04:22:14.090Z,4.30
2018-11-14T04:24:42.496Z,4.20
2018-11-14T04:27:11.683Z,4.10
2018-11-14T04:29:39.959Z,4.20
2018-11-14T04:32:08.562Z,4.10
2018-11-14T04:34:37.353Z,4.00
2018-11-14T04:37:05.830Z,4.10
2018-11-14T04:39:34.465Z,4.20
2018-11-14T04:42:02.255Z,4.30
2018-11-14T04:44:30.248Z,4.30
2018-11-14T04:46:58.291Z,4.30
2018-11-14T04:49:26.913Z,4.30
2018-11-14T04:51:55.914Z,4.30
2018-11-14T04:54:24.037Z,4.20
2018-11-14T04:56:52.277Z,4.20
2018-11-14T04:59:20.267Z,4.20
2018-11-14T05:01:48.803Z,4.30
2018-11-14T05:04:17.128Z,4.30
2018-11-14T05:06:45.446Z,4.10
2018-11-14T05:09:13.465Z,4.10
2018-11-14T05:11:42.929Z,4.10
2018-11-14T05:14:11.987Z,4.10
2018-11-14T05:16:40.430Z,4.20
2018-11-14T05:19:08.379Z,4.30
2018-11-14T05:21:36.525Z,4.30
2018-11-14T05:24:04.792Z,4.40
2018-11-14T05:26:32.965Z,4.50
2018-11-14T05:29:01.390Z,4.50
2018-11-14T05:31:29.884Z,4.30
2018-11-14T05:33:58.050Z,4.20
2018-11-14T05:36:26.076Z,4.20
2018-11-14T05:38:54.226Z,4.20
2018-11-14T05:41:22.299Z,4.10
2018-11-14T05:43:51.032Z,4.20
2018-11-14T05:46:19.519Z,4.30
2018-11-14T05:48:47.560Z,4.40
2018-11-14T05:51:15.639Z,4.40
2018-11-14T05:53:43.312Z,4.40
2018-11-14T05:56:11.060Z,4.40
2018-11-14T05:58:38.807Z,4.40
2018-11-14T06:01:07.318Z,4.40
2018-11-14T06:03:35.741Z,4.40
2018-11-14T06:06:10.336Z,4.40
2018-11-14T06:08:38.346Z,4.30
2018-11-14T06:11:06.341Z,4.40
2018-11-14T06:13:34.174Z,4.40
2018-11-14T06:16:04.310Z,4.50
2018-11-14T06:18:33.690Z,4.60
2018-11-14T06:21:02.251Z,4.60
2018-11-14T06:23:30.321Z,4.60
2018-11-14T06:25:58.567Z,4.50
2018-11-14T06:28:26.585Z,4.40
2018-11-14T06:30:55.160Z,4.30
2018-11-14T06:33:23.600Z,4.20
2018-11-14T06:35:51.703Z,4.20
2018-11-14T06:38:20.013Z,4.30
2018-11-14T06:40:48.258Z,4.40
2018-11-14T06:43:18.184Z,4.40
2018-11-14T06:45:46.626Z,4.20
2018-11-14T06:48:14.397Z,4.30
2018-11-14T06:50:42.244Z,4.20
2018-11-14T06:53:10.595Z,4.20
2018-11-14T06:55:38.909Z,4.10
2018-11-14T06:58:07.086Z,4.20
2018-11-14T07:00:35.629Z,4.20
2018-11-14T07:03:05.948Z,4.10
2018-11-14T07:05:34.079Z,4.20
2018-11-14T07:08:02.425Z,4.40
2018-11-14T07:10:32.326Z,4.30
2018-11-14T07:13:05.369Z,4.20
2018-11-14T07:15:33.574Z,4.10
2018-11-14T07:18:02.174Z,4.00
2018-11-14T07:20:32.313Z,4.10
2018-11-14T07:23:00.120Z,3.90
2018-11-14T07:25:27.869Z,3.80
2018-11-14T07:27:56.005Z,3.80
2018-11-14T07:30:29.548Z,3.80
2018-11-14T07:33:00.867Z,3.70
2018-11-14T07:35:28.869Z,3.60
2018-11-14T07:38:07.325Z,3.60
2018-11-14T07:40:35.025Z,3.60
2018-11-14T07:43:02.820Z,3.60
2018-11-14T07:45:31.492Z,3.60
2018-11-14T07:47:59.299Z,3.60
2018-11-14T07:50:27.382Z,3.70
2018-11-14T07:52:55.493Z,3.70
2018-11-14T07:55:23.561Z,3.70
2018-11-14T07:57:51.699Z,3.70
2018-11-14T08:00:19.617Z,3.60
2018-11-14T08:02:47.660Z,3.60
2018-11-14T08:05:16.574Z,3.70
2018-11-14T08:07:44.498Z,3.90
2018-11-14T08:10:12.859Z,4.00
2018-11-14T08:12:40.742Z,4.00
2018-11-14T08:15:10.526Z,4.10
2018-11-14T08:17:38.661Z,4.20
2018-11-14T08:20:09.508Z,4.20
2018-11-14T08:22:37.798Z,4.10
2018-11-14T08:25:07.055Z,4.10
2018-11-14T08:27:47.543Z,4.20
2018-11-14T08:30:15.231Z,4.30
2018-11-14T08:32:43.057Z,4.30
2018-11-14T08:35:11.212Z,4.30
2018-11-14T08:37:40.590Z,4.20
2018-11-14T08:40:09.429Z,4.30
2018-11-14T08:42:38.269Z,4.30
2018-11-14T08:45:13.498Z,4.40
2018-11-14T08:47:41.930Z,4.30
2018-11-14T08:50:14.194Z,4.30
2018-11-14T08:52:42.429Z,4.20
2018-11-14T08:55:11.464Z,4.20
2018-11-14T08:57:40.621Z,4.20
2018-11-14T09:00:12.463Z,4.20
2018-11-14T09:02:40.265Z,4.30
2018-11-14T09:05:08.898Z,4.40
2018-11-14T09:07:37.307Z,4.50
2018-11-14T09:10:08.151Z,4.50
2018-11-14T09:12:36.519Z,4.60
2018-11-14T09:15:05.464Z,4.60
2018-11-14T09:17:33.435Z,4.70
2018-11-14T09:20:01.456Z,4.80
2018-11-14T09:22:29.320Z,4.90
2018-11-14T09:24:57.217Z,4.80
2018-11-14T09:27:25.019Z,4.80
2018-11-14T09:29:52.927Z,4.80
2018-11-14T09:32:20.610Z,4.80
2018-11-14T09:34:48.428Z,4.80
2018-11-14T09:37:16.196Z,4.70
2018-11-14T09:39:43.937Z,4.80
2018-11-14T09:42:11.668Z,4.80
2018-11-14T09:44:39.398Z,4.70
2018-11-14T09:47:07.273Z,4.70
2018-11-14T09:49:35.042Z,4.80
2018-11-14T09:52:02.826Z,4.80
2018-11-14T09:54:30.653Z,4.80
2018-11-14T09:56:58.724Z,4.80
2018-11-14T09:59:26.585Z,5.00
2018-11-14T10:01:54.413Z,5.00
2018-11-14T10:04:22.200Z,5.00
2018-11-14T10:06:49.813Z,5.00
2018-11-14T10:09:17.487Z,5.00
2018-11-14T10:11:45.225Z,5.00
2018-11-14T10:14:12.892Z,5.00
2018-11-14T10:16:41.138Z,5.00
2018-11-14T10:19:10.438Z,5.10
2018-11-14T10:21:38.701Z,5.10
2018-11-14T10:24:06.561Z,5.10
2018-11-14T10:26:34.438Z,5.30
2018-11-14T10:29:02.506Z,5.40
2018-11-14T10:31:30.656Z,5.50
2018-11-14T10:33:58.445Z,5.60
2018-11-14T10:36:26.175Z,5.60
2018-11-14T10:38:54.101Z,5.80
2018-11-14T10:41:21.971Z,6.00
2018-11-14T10:43:49.837Z,6.00
2018-11-14T10:46:17.590Z,6.10
2018-11-14T10:48:45.513Z,6.20
2018-11-14T10:51:13.381Z,6.20
2018-11-14T10:53:41.370Z,6.30
2018-11-14T10:56:09.370Z,6.20
2018-11-14T10:58:37.286Z,6.40
2018-11-14T11:01:11.414Z,6.40
2018-11-14T11:03:45.266Z,6.50
2018-11-14T11:06:18.497Z,6.50
2018-11-14T11:08:51.978Z,6.60
2018-11-14T11:11:25.428Z,6.60
2018-11-14T11:14:08.782Z,6.50
2018-11-14T11:16:41.247Z,6.80
2018-11-14T11:19:09.410Z,6.90
2018-11-14T11:21:37.402Z,7.10
2018-11-14T11:24:05.354Z,7.20
2018-11-14T11:26:33.642Z,7.00
2018-11-14T11:29:01.783Z,7.10
2018-11-14T11:31:29.966Z,7.30
2018-11-14T11:33:57.769Z,7.40
2018-11-14T11:36:25.831Z,7.40
2018-11-14T11:38:53.749Z,7.50
2018-11-14T11:41:22.013Z,7.60
2018-11-14T11:43:50.664Z,7.70
2018-11-14T11:46:18.537Z,7.80
2018-11-14T11:48:46.384Z,7.90
2018-11-14T11:51:14.140Z,8.00
2018-11-14T11:53:42.010Z,8.10
2018-11-14T11:56:10.465Z,8.20
2018-11-14T11:58:38.314Z,8.30
2018-11-14T12:01:11.628Z,8.40
2018-11-14T12:03:43.513Z,8.50
2018-11-14T12:06:12.490Z,8.50
2018-11-14T12:08:42.340Z,8.60
2018-11-14T12:11:14.480Z,8.50
2018-11-14T12:16:25.722Z,8.80
2018-11-14T12:18:56.667Z,9.00
2018-11-14T12:21:26.490Z,9.00
2018-11-14T12:23:57.797Z,9.10
2018-11-14T12:26:31.592Z,9.20
2018-11-14T12:29:05.020Z,9.30
2018-11-14T12:31:36.590Z,9.40
2018-11-14T12:34:09.179Z,9.40
2018-11-14T12:36:39.562Z,9.30
2018-11-14T12:39:15.441Z,9.40
2018-11-14T12:41:53.929Z,9.60
2018-11-14T12:44:29.016Z,9.70
2018-11-14T12:47:04.122Z,9.80
2018-11-14T12:49:40.274Z,10.00
2018-11-14T12:52:10.518Z,10.10
2018-11-14T12:54:38.730Z,10.20
2018-11-14T12:57:06.550Z,10.30
2018-11-14T12:59:34.758Z,10.50
2018-11-14T13:02:05.106Z,10.60
2018-11-14T13:04:32.887Z,10.70
2018-11-14T13:07:00.745Z,10.80
2018-11-14T13:09:28.549Z,10.80
2018-11-14T13:11:56.876Z,10.90
2018-11-14T13:14:26.106Z,11.00
2018-11-14T13:16:54.686Z,11.10
2018-11-14T13:19:23.717Z,11.20
2018-11-14T13:21:51.455Z,11.30
2018-11-14T13:24:29.702Z,11.40
2018-11-14T13:27:11.975Z,11.50
2018-11-14T13:29:50.995Z,11.50
2018-11-14T13:32:30.045Z,11.60
2018-11-14T13:35:03.910Z,11.70
2018-11-14T13:37:45.761Z,11.70
2018-11-14T13:40:24.517Z,11.80
2018-11-14T13:42:52.776Z,11.90
2018-11-14T13:45:21.694Z,12.00
2018-11-14T13:47:50.185Z,12.10
2018-11-14T13:50:20.057Z,12.20
2018-11-14T13:52:49.326Z,12.30
2018-11-14T13:55:18.350Z,12.30
2018-11-14T13:57:48.136Z,12.40
2018-11-14T14:00:17.703Z,12.40
2018-11-14T14:02:45.884Z,12.50
2018-11-14T14:05:17.606Z,12.70
2018-11-14T14:07:47.350Z,12.70
2018-11-14T14:10:17.934Z,12.70
2018-11-14T14:12:49.853Z,12.80
2018-11-14T14:15:22.537Z,12.80
2018-11-14T14:17:52.859Z,12.90
2018-11-14T14:20:23.107Z,13.00
2018-11-14T14:22:51.475Z,13.00
2018-11-14T14:25:22.514Z,13.00
2018-11-14T14:27:52.213Z,13.00
2018-11-14T14:30:21.926Z,12.90
2018-11-14T14:32:52.062Z,13.00
2018-11-14T14:35:22.139Z,12.90
2018-11-14T14:37:52.787Z,12.90
2018-11-14T14:40:21.958Z,12.90
2018-11-14T14:42:50.013Z,12.90
2018-11-14T14:45:21.231Z,12.90
2018-11-14T14:47:57.781Z,12.90
2018-11-14T14:50:27.838Z,12.80
2018-11-14T14:52:59.451Z,12.70
2018-11-14T14:55:27.823Z,12.70
2018-11-14T14:57:57.870Z,12.60
2018-11-14T15:00:27.462Z,12.60
2018-11-14T15:03:00.740Z,12.50
2018-11-14T15:05:29.953Z,12.50
2018-11-14T15:08:01.158Z,12.40
2018-11-14T15:10:30.811Z,12.40
2018-11-14T15:13:00.847Z,12.30
2018-11-14T15:15:31.714Z,12.30
2018-11-14T15:17:59.915Z,12.20
2018-11-14T15:20:30.326Z,12.10
2018-11-14T15:23:05.224Z,12.00
2018-11-14T15:25:33.951Z,11.80
2018-11-14T15:28:02.429Z,11.70
2018-11-14T15:30:37.514Z,11.50
2018-11-14T15:33:05.598Z,11.40
2018-11-14T15:35:33.850Z,11.30
2018-11-14T15:38:03.234Z,11.30
2018-11-14T15:40:31.979Z,11.10
2018-11-14T15:43:00.129Z,11.00
2018-11-14T15:45:28.969Z,10.90
2018-11-14T15:47:56.931Z,10.70
2018-11-14T15:50:27.278Z,10.50
2018-11-14T15:52:56.483Z,10.30
2018-11-14T15:55:24.625Z,10.00
2018-11-14T15:57:52.836Z,9.90
2018-11-14T16:00:26.833Z,9.70
2018-11-14T16:02:55.453Z,9.60
2018-11-14T16:05:24.744Z,9.50
2018-11-14T16:07:53.991Z,9.50
2018-11-14T16:10:22.907Z,9.50
2018-11-14T16:12:50.843Z,9.50
2018-11-14T16:15:28.519Z,9.60
2018-11-14T16:17:57.171Z,9.50
2018-11-14T16:20:26.382Z,9.50
2018-11-14T16:22:55.268Z,9.40
2018-11-14T16:25:24.834Z,9.30
2018-11-14T16:27:54.295Z,9.20
2018-11-14T16:30:25.670Z,9.10
2018-11-14T16:32:55.116Z,9.00
2018-11-14T16:35:23.117Z,8.90
2018-11-14T16:38:03.812Z,8.80
2018-11-14T16:40:33.236Z,8.70
2018-11-14T16:43:06.102Z,8.50
2018-11-14T16:45:34.586Z,8.30
2018-11-14T16:48:02.925Z,8.30
2018-11-14T16:50:31.476Z,8.10
2018-11-14T16:52:59.617Z,8.00
2018-11-14T16:55:28.372Z,7.90
2018-11-14T16:57:58.414Z,7.90
2018-11-14T17:00:30.709Z,8.00
2018-11-14T17:03:00.840Z,7.90
2018-11-14T17:05:30.454Z,7.80
2018-11-14T17:08:07.014Z,7.90
2018-11-14T17:10:35.318Z,7.80
2018-11-14T17:13:12.886Z,7.70
2018-11-14T17:15:48.134Z,7.70
2018-11-14T17:18:17.823Z,7.70
2018-11-14T17:20:47.866Z,7.70
2018-11-14T17:23:16.750Z,7.60
2018-11-14T17:25:45.700Z,7.70
2018-11-14T17:28:14.002Z,7.60
2018-11-14T17:30:48.841Z,7.50
2018-11-14T17:33:17.551Z,7.50
2018-11-14T17:35:46.139Z,7.50
2018-11-14T17:38:18.393Z,7.50
2018-11-14T17:40:46.748Z,7.60
2018-11-14T17:43:15.568Z,7.70
2018-11-14T17:45:46.906Z,7.70
2018-11-14T17:48:17.374Z,7.80
2018-11-14T17:50:45.929Z,7.90
2018-11-14T17:53:14.288Z,8.00
2018-11-14T17:55:43.504Z,7.80
2018-11-14T17:58:11.967Z,7.70
2018-11-14T18:00:40.414Z,7.70
2018-11-14T18:15:13.490Z,7.20
2018-11-14T18:17:44.954Z,7.20
2018-11-14T18:20:16.348Z,7.20
2018-11-14T18:22:52.280Z,7.10
2018-11-14T18:25:23.978Z,7.00
2018-11-14T18:27:55.583Z,7.10
2018-11-14T18:30:30.181Z,7.20
2018-11-14T18:33:01.063Z,7.30
2018-11-14T18:35:34.302Z,7.20
2018-11-14T18:38:08.174Z,7.20
2018-11-14T18:40:36.712Z,7.20
2018-11-14T18:43:05.296Z,7.20
2018-11-14T18:45:34.956Z,7.30
2018-11-14T18:48:04.203Z,7.20
2018-11-14T18:50:31.994Z,7.20
2018-11-14T18:53:00.346Z,7.20
2018-11-14T18:55:30.060Z,7.20
2018-11-14T18:57:59.214Z,7.10
2018-11-14T19:00:29.075Z,7.20
2018-11-14T19:02:58.044Z,7.20
2018-11-14T19:05:27.064Z,7.20
2018-11-14T19:07:59.159Z,7.10
2018-11-14T19:10:30.821Z,7.10
2018-11-14T19:13:00.098Z,7.10
2018-11-14T19:15:38.293Z,7.20
2018-11-14T19:18:06.765Z,7.30
2018-11-14T19:20:36.245Z,7.30
2018-11-14T19:23:06.080Z,7.40
2018-11-14T19:25:36.949Z,7.40
2018-11-14T19:28:09.850Z,7.40
2018-11-14T19:30:38.472Z,7.50
2018-11-14T19:33:06.695Z,7.50
2018-11-14T19:35:53.918Z,7.50
2018-11-14T19:38:23.562Z,7.40
2018-11-14T19:40:57.031Z,7.10
2018-11-14T19:43:25.543Z,6.90
2018-11-14T19:48:30.100Z,7.00
2018-11-14T19:51:07.434Z,7.00
2018-11-14T19:53:36.868Z,6.90
2018-11-14T19:56:07.393Z,6.90
2018-11-14T19:58:37.071Z,6.90
2018-11-14T20:01:07.172Z,6.90
2018-11-14T20:03:47.992Z,7.00
2018-11-14T20:06:17.255Z,7.10
2018-11-14T20:08:46.418Z,7.10
2018-11-14T20:11:27.768Z,7.20
2018-11-14T20:13:58.333Z,7.10
2018-11-14T20:16:27.513Z,6.80
2018-11-14T20:18:55.971Z,6.60
2018-11-14T20:21:24.605Z,6.50
2018-11-14T20:23:52.554Z,6.60
2018-11-14T20:26:21.335Z,6.70
2018-11-14T20:28:49.224Z,6.70
2018-11-14T20:31:19.025Z,6.70
2018-11-14T20:33:46.729Z,6.60
2018-11-14T20:36:14.552Z,6.50
2018-11-14T20:38:42.413Z,6.60
2018-11-14T20:41:10.267Z,6.70
2018-11-14T20:43:38.490Z,6.80
2018-11-14T20:46:07.128Z,6.80
2018-11-14T20:48:34.765Z,6.80
2018-11-14T20:51:04.394Z,6.80
2018-11-14T20:53:32.337Z,6.90
2018-11-14T20:56:00.593Z,6.80
2018-11-14T20:58:28.380Z,6.90
2018-11-14T21:00:56.676Z,6.90
2018-11-14T21:06:10.761Z,6.70
2018-11-14T21:08:40.466Z,6.70
2018-11-14T21:11:08.293Z,6.80
2018-11-14T21:13:36.233Z,6.90
2018-11-14T21:16:04.862Z,6.90
2018-11-14T21:18:32.922Z,6.90
2018-11-14T21:21:00.744Z,6.80
2018-11-14T21:23:28.462Z,6.80
2018-11-14T21:25:56.517Z,6.70
2018-11-14T21:28:24.338Z,6.60
2018-11-14T21:30:52.099Z,6.60
2018-11-14T21:33:20.032Z,6.50
2018-11-14T21:35:51.374Z,6.50
2018-11-14T21:38:19.126Z,6.50
2018-11-14T21:40:47.937Z,6.60
2018-11-14T21:43:15.818Z,6.60
2018-11-14T21:45:43.970Z,6.60
2018-11-14T21:48:13.762Z,6.40
2018-11-14T21:50:44.331Z,6.40
2018-11-14T21:53:12.597Z,6.40
2018-11-14T21:55:40.546Z,6.30
2018-11-14T21:58:09.464Z,6.30
2018-11-14T22:00:39.249Z,6.30
2018-11-14T22:03:10.702Z,6.30
2018-11-14T22:05:40.613Z,6.30
2018-11-14T22:08:09.845Z,6.30
2018-11-14T22:10:37.943Z,6.30
2018-11-14T22:13:07.326Z,6.30
2018-11-14T22:15:35.475Z,6.30
2018-11-14T22:18:04.674Z,6.30
2018-11-14T22:20:33.502Z,6.30
2018-11-14T22:23:02.666Z,6.20
2018-11-14T22:25:32.678Z,6.10
2018-11-14T22:28:01.265Z,6.10
2018-11-14T22:30:31.426Z,6.10
2018-11-14T22:33:01.318Z,6.00
2018-11-14T22:35:32.439Z,5.80
2018-11-14T22:38:02.260Z,5.80
2018-11-14T22:40:32.100Z,5.70
2018-11-14T22:43:00.567Z,5.60
2018-11-14T22:45:33.875Z,5.50
2018-11-14T22:48:02.591Z,5.50
2018-11-14T22:50:32.214Z,5.40
2018-11-14T22:53:06.873Z,5.30
2018-11-14T22:55:35.406Z,5.20
2018-11-14T22:58:05.250Z,5.20
2018-11-14T23:00:45.717Z,5.10
2018-11-14T23:03:14.609Z,5.00
2018-11-14T23:05:43.495Z,4.90
2018-11-14T23:08:13.293Z,4.80
2018-11-14T23:10:41.168Z,4.70
2018-11-14T23:13:11.565Z,4.60
2018-11-14T23:15:42.535Z,4.70
2018-11-14T23:18:11.905Z,4.70
2018-11-14T23:20:40.387Z,4.80
2018-11-14T23:23:09.176Z,4.80
2018-11-14T23:25:37.922Z,4.60
2018-11-14T23:28:06.760Z,4.50
2018-11-14T23:30:36.366Z,4.30
2018-11-14T23:33:05.249Z,4.10
2018-11-14T23:35:33.795Z,4.00
2018-11-14T23:38:04.811Z,4.00
2018-11-14T23:40:33.635Z,4.00
2018-11-14T23:43:02.368Z,4.10
2018-11-14T23:45:31.201Z,4.00
2018-11-14T23:48:00.030Z,4.00
2018-11-14T23:50:30.220Z,4.00
2018-11-14T23:53:00.518Z,3.80
2018-11-14T23:55:29.761Z,3.80
2018-11-14T23:57:58.735Z,3.80
